Time;durP1;ratioP1;P1;durP2;ratioP2;P2;SDS_P1;SDS_P2;PMS_P1;PMS_P2;Temp;Humidity;BMP_temperature;BMP_pressure;BME280_temperature;BME280_humidity;BME280_pressure;Samples;Min_cycle;Max_cycle;Signal;HPM_P1;HPM_P2
2022/12/01 00:00:44;0.00;0.00;0.62;0.00;0.00;0.62;2.60;2.20;;;23.40;26.90;;;;;;2230988;62;20403;-61
2022/12/01 00:03:30;0.00;0.00;0.62;0.00;0.00;0.62;2.73;2.10;;;23.50;27.00;;;;;;2232123;62;20391;-61
2022/12/01 00:06:17;0.00;0.00;0.62;0.00;0.00;0.62;2.93;2.30;;;23.40;26.90;;;;;;2231137;62;20371;-61
2022/12/01 00:12:08;0.00;0.00;0.62;0.00;0.00;0.62;2.70;2.07;;;23.50;27.00;;;;;;2232194;62;20505;-61
2022/12/01 00:14:59;0.00;0.00;0.62;0.00;0.00;0.62;2.67;2.30;;;23.50;27.00;;;;;;2231045;62;20375;-59
2022/12/01 00:17:46;0.00;0.00;0.62;0.00;0.00;0.62;2.50;2.00;;;23.50;27.00;;;;;;2232057;62;20788;-60
2022/12/01 00:20:33;0.00;0.00;0.62;0.00;0.00;0.62;2.70;2.07;;;23.50;27.00;;;;;;2232235;62;20423;-60
2022/12/01 00:23:18;0.00;0.00;0.62;0.00;0.00;0.62;2.90;1.93;;;23.50;26.90;;;;;;2231603;62;20387;-61
2022/12/01 00:26:04;0.00;0.00;0.62;0.00;0.00;0.62;2.50;2.00;;;23.50;26.90;;;;;;2232180;62;20367;-60
2022/12/01 00:28:51;0.00;0.00;0.62;0.00;0.00;0.62;2.03;1.80;;;23.50;26.90;;;;;;2232189;62;20370;-62
2022/12/01 00:31:37;0.00;0.00;0.62;0.00;0.00;0.62;2.63;1.97;;;23.50;26.90;;;;;;2287073;58;20455;-61
2022/12/01 00:34:23;0.00;0.00;0.62;0.00;0.00;0.62;2.60;2.17;;;23.50;26.90;;;;;;2233575;62;20418;-61
2022/12/01 00:37:08;0.00;0.00;0.62;0.00;0.00;0.62;2.83;2.03;;;23.50;26.90;;;;;;2235568;62;20498;-63
2022/12/01 00:39:53;0.00;0.00;0.62;0.00;0.00;0.62;2.00;1.50;;;23.50;26.90;;;;;;2236742;62;20418;-64
2022/12/01 00:42:38;0.00;0.00;0.62;0.00;0.00;0.62;2.70;1.87;;;23.50;26.90;;;;;;2236782;62;20390;-61
2022/12/01 00:45:24;0.00;0.00;0.62;0.00;0.00;0.62;2.43;1.97;;;23.50;27.00;;;;;;2236039;62;20371;-61
2022/12/01 00:48:09;0.00;0.00;0.62;0.00;0.00;0.62;2.80;2.60;;;23.50;26.90;;;;;;2236811;62;20463;-61
2022/12/01 00:50:55;0.00;0.00;0.62;0.00;0.00;0.62;3.27;2.77;;;23.50;26.90;;;;;;2235971;62;20366;-61
2022/12/01 00:53:40;0.00;0.00;0.62;0.00;0.00;0.62;3.80;2.87;;;23.50;26.90;;;;;;2236203;62;21109;-61
2022/12/01 00:56:24;0.00;0.00;0.62;0.00;0.00;0.62;4.73;3.80;;;23.50;26.80;;;;;;2233559;62;20374;-61
2022/12/01 00:59:10;0.00;0.00;0.62;0.00;0.00;0.62;4.80;4.30;;;23.50;26.80;;;;;;2235272;62;20374;-61
2022/12/01 01:01:56;0.00;0.00;0.62;0.00;0.00;0.62;6.07;4.87;;;23.50;26.80;;;;;;2236611;62;20880;-61
2022/12/01 01:04:41;0.00;0.00;0.62;0.00;0.00;0.62;7.00;5.83;;;23.50;26.70;;;;;;2236227;62;20958;-61
2022/12/01 01:07:26;0.00;0.00;0.62;0.00;0.00;0.62;6.70;5.80;;;23.50;26.70;;;;;;2235546;62;20825;-60
2022/12/01 01:10:11;0.00;0.00;0.62;0.00;0.00;0.62;7.57;6.20;;;23.50;26.60;;;;;;2236625;62;20390;-60
2022/12/01 01:12:56;0.00;0.00;0.62;0.00;0.00;0.62;7.10;6.27;;;23.50;26.60;;;;;;2232508;62;20941;-61
2022/12/01 01:15:41;0.00;0.00;0.62;0.00;0.00;0.62;7.70;6.90;;;23.40;26.50;;;;;;2235960;62;20467;-61
2022/12/01 01:18:28;0.00;0.00;0.62;0.00;0.00;0.62;7.53;6.73;;;23.40;26.50;;;;;;2236429;62;20470;-61
2022/12/01 01:21:15;0.00;0.00;0.62;0.00;0.00;0.62;8.80;7.83;;;23.40;26.40;;;;;;2235065;62;20394;-61
2022/12/01 01:24:01;0.00;0.00;0.62;0.00;0.00;0.62;8.87;7.97;;;23.40;26.40;;;;;;2236544;62;20906;-61
2022/12/01 01:26:45;0.00;0.00;0.62;0.00;0.00;0.62;10.30;9.10;;;23.40;26.40;;;;;;2236158;62;20346;-61
2022/12/01 01:29:30;0.00;0.00;0.62;0.00;0.00;0.62;9.27;7.60;;;23.40;26.30;;;;;;2235507;62;20410;-61
2022/12/01 01:32:15;0.00;0.00;0.62;0.00;0.00;0.62;10.20;8.30;;;23.40;26.30;;;;;;2233202;62;20804;-61
2022/12/01 01:35:01;0.00;0.00;0.62;0.00;0.00;0.62;9.80;8.60;;;23.40;26.30;;;;;;2235673;62;20370;-61
2022/12/01 01:37:48;0.00;0.00;0.62;0.00;0.00;0.62;10.00;8.57;;;23.30;26.20;;;;;;2235847;62;20420;-61
2022/12/01 01:40:33;0.00;0.00;0.62;0.00;0.00;0.62;9.73;8.70;;;23.30;26.20;;;;;;2233124;62;20989;-61
2022/12/01 01:43:42;0.00;0.00;0.62;0.00;0.00;0.62;10.30;9.20;;;23.30;26.20;;;;;;2235283;62;20405;-61
2022/12/01 01:46:29;0.00;0.00;0.62;0.00;0.00;0.62;10.63;9.63;;;23.30;26.20;;;;;;2236203;62;20378;-61
2022/12/01 01:49:14;0.00;0.00;0.62;0.00;0.00;0.62;10.47;9.47;;;23.30;26.20;;;;;;2236293;62;20370;-61
2022/12/01 01:52:03;0.00;0.00;0.62;0.00;0.00;0.62;10.00;9.00;;;23.30;26.10;;;;;;2235609;62;20837;-61
2022/12/01 01:54:52;0.00;0.00;0.62;0.00;0.00;0.62;12.27;11.07;;;23.30;26.10;;;;;;2236152;62;20374;-62
2022/12/01 01:57:38;0.00;0.00;0.62;0.00;0.00;0.62;10.40;9.30;;;23.30;26.10;;;;;;2235789;62;20415;-61
2022/12/01 02:00:23;0.00;0.00;0.62;0.00;0.00;0.62;12.37;10.80;;;23.20;26.00;;;;;;2235719;62;20394;-61
2022/12/01 02:03:11;0.00;0.00;0.62;0.00;0.00;0.62;10.97;9.87;;;23.20;26.00;;;;;;2236217;62;20439;-61
2022/12/01 02:05:57;0.00;0.00;0.62;0.00;0.00;0.62;11.63;10.40;;;23.20;26.00;;;;;;2234957;62;20366;-60
2022/12/01 02:08:45;0.00;0.00;0.62;0.00;0.00;0.62;12.53;9.53;;;23.20;26.00;;;;;;2236284;62;20459;-61
2022/12/01 02:11:51;0.00;0.00;0.62;0.00;0.00;0.62;11.63;10.13;;;23.10;25.90;;;;;;2236100;62;20375;-61
2022/12/01 02:15:00;0.00;0.00;0.62;0.00;0.00;0.62;11.73;10.57;;;23.10;25.90;;;;;;2235650;62;20418;-61
2022/12/01 02:17:55;0.00;0.00;0.62;0.00;0.00;0.62;14.70;12.10;;;23.10;25.90;;;;;;2236360;62;20366;-61
2022/12/01 02:21:11;0.00;0.00;0.62;0.00;0.00;0.62;11.80;10.40;;;23.10;25.90;;;;;;2234830;62;20810;-61
2022/12/01 02:24:36;0.00;0.00;0.62;0.00;0.00;0.62;13.17;11.70;;;23.10;25.90;;;;;;2236024;62;20394;-61
2022/12/01 02:27:37;0.00;0.00;0.62;0.00;0.00;0.62;12.13;10.87;;;23.10;25.90;;;;;;2232392;62;20812;-61
2022/12/01 02:30:38;0.00;0.00;0.62;0.00;0.00;0.62;12.90;11.60;;;23.00;25.80;;;;;;2236175;62;20418;-61
2022/12/01 02:33:27;0.00;0.00;0.62;0.00;0.00;0.62;12.33;11.03;;;23.00;25.80;;;;;;2236163;62;20402;-61
2022/12/01 02:36:17;0.00;0.00;0.62;0.00;0.00;0.62;14.13;11.40;;;23.00;25.80;;;;;;2234988;62;20825;-60
2022/12/01 02:39:09;0.00;0.00;0.62;0.00;0.00;0.62;12.17;10.90;;;23.00;26.40;;;;;;2236312;62;20925;-60
2022/12/01 02:42:02;0.00;0.00;0.62;0.00;0.00;0.62;13.13;11.83;;;23.00;25.80;;;;;;2235330;62;20860;-60
2022/12/01 02:44:48;0.00;0.00;0.62;0.00;0.00;0.62;12.77;11.33;;;23.00;25.80;;;;;;2235707;62;20370;-61
2022/12/01 02:47:37;0.00;0.00;0.62;0.00;0.00;0.62;13.83;10.80;;;22.90;25.70;;;;;;2232940;62;20373;-60
2022/12/01 02:50:24;0.00;0.00;0.62;0.00;0.00;0.62;12.53;11.23;;;23.00;25.80;;;;;;2234715;62;20378;-61
2022/12/01 02:53:13;0.00;0.00;0.62;0.00;0.00;0.62;13.33;11.77;;;22.90;25.70;;;;;;2236097;62;20599;-61
2022/12/01 02:55:58;0.00;0.00;0.62;0.00;0.00;0.62;13.67;12.20;;;22.90;25.70;;;;;;2236316;62;20494;-60
2022/12/01 02:58:43;0.00;0.00;0.62;0.00;0.00;0.62;14.20;11.90;;;22.90;25.70;;;;;;2235538;62;20511;-61
2022/12/01 03:01:49;0.00;0.00;0.62;0.00;0.00;0.62;13.40;12.00;;;22.90;25.70;;;;;;2236083;62;20433;-61
2022/12/01 03:04:50;0.00;0.00;0.62;0.00;0.00;0.62;13.20;11.80;;;22.90;25.70;;;;;;2235050;62;20365;-60
2022/12/01 03:07:52;0.00;0.00;0.62;0.00;0.00;0.62;13.40;11.83;;;22.90;25.70;;;;;;2232987;62;20423;-61
2022/12/01 03:10:49;0.00;0.00;0.62;0.00;0.00;0.62;13.60;12.20;;;22.90;25.70;;;;;;2235813;62;20818;-61
2022/12/01 03:13:44;0.00;0.00;0.62;0.00;0.00;0.62;12.97;11.30;;;22.80;26.20;;;;;;2235702;62;20471;-61
2022/12/01 03:16:39;0.00;0.00;0.62;0.00;0.00;0.62;13.40;12.10;;;22.80;25.60;;;;;;2236110;62;20411;-61
2022/12/01 03:19:32;0.00;0.00;0.62;0.00;0.00;0.62;13.67;12.27;;;22.90;25.70;;;;;;2235367;62;20374;-61
2022/12/01 03:22:24;0.00;0.00;0.62;0.00;0.00;0.62;14.30;12.77;;;22.80;25.60;;;;;;2235873;62;20466;-60
2022/12/01 03:25:12;0.00;0.00;0.62;0.00;0.00;0.62;13.10;11.63;;;22.80;25.60;;;;;;2235759;62;20370;-60
2022/12/01 03:27:59;0.00;0.00;0.62;0.00;0.00;0.62;16.03;13.17;;;22.80;25.60;;;;;;2235070;62;20406;-60
2022/12/01 03:30:45;0.00;0.00;0.62;0.00;0.00;0.62;13.60;12.10;;;22.80;25.60;;;;;;2236001;62;20759;-60
2022/12/01 03:33:35;0.00;0.00;0.62;0.00;0.00;0.62;13.57;12.20;;;22.80;25.50;;;;;;2235075;62;20402;-60
2022/12/01 03:36:28;0.00;0.00;0.62;0.00;0.00;0.62;15.03;13.47;;;22.80;25.60;;;;;;2232394;62;20378;-60
2022/12/01 03:39:22;0.00;0.00;0.62;0.00;0.00;0.62;14.70;12.53;;;22.80;25.60;;;;;;2235799;62;20387;-61
2022/12/01 03:42:12;0.00;0.00;0.62;0.00;0.00;0.62;14.57;13.03;;;22.70;25.50;;;;;;2234325;62;20907;-61
2022/12/01 03:45:03;0.00;0.00;0.62;0.00;0.00;0.62;13.87;12.43;;;22.70;25.50;;;;;;2235880;62;20362;-61
2022/12/01 03:47:48;0.00;0.00;0.62;0.00;0.00;0.62;13.40;11.77;;;22.70;25.50;;;;;;2235852;62;20389;-61
2022/12/01 03:50:42;0.00;0.00;0.62;0.00;0.00;0.62;16.20;13.80;;;22.70;25.50;;;;;;2235381;62;20864;-60
2022/12/01 03:53:34;0.00;0.00;0.62;0.00;0.00;0.62;15.67;14.00;;;22.70;25.50;;;;;;2235857;62;20386;-61
2022/12/01 03:56:23;0.00;0.00;0.62;0.00;0.00;0.62;14.50;13.00;;;22.70;25.50;;;;;;2235386;62;20371;-60
2022/12/01 03:59:10;0.00;0.00;0.62;0.00;0.00;0.62;14.60;12.30;;;22.70;25.50;;;;;;2236142;62;20503;-61
2022/12/01 04:01:56;0.00;0.00;0.62;0.00;0.00;0.62;15.47;13.77;;;22.70;25.50;;;;;;2236462;62;20445;-61
2022/12/01 04:04:41;0.00;0.00;0.62;0.00;0.00;0.62;18.03;14.20;;;22.60;25.40;;;;;;2235615;62;20402;-60
2022/12/01 04:07:26;0.00;0.00;0.62;0.00;0.00;0.62;15.13;13.23;;;22.60;25.40;;;;;;2236524;62;20370;-60
2022/12/01 04:10:14;0.00;0.00;0.62;0.00;0.00;0.62;14.37;12.87;;;22.60;25.40;;;;;;2236311;62;20905;-61
2022/12/01 04:13:00;0.00;0.00;0.62;0.00;0.00;0.62;14.90;13.20;;;22.60;25.40;;;;;;2235871;62;20394;-60
2022/12/01 04:15:45;0.00;0.00;0.62;0.00;0.00;0.62;14.17;12.67;;;22.60;25.40;;;;;;2236195;62;20941;-61
2022/12/01 04:18:30;0.00;0.00;0.62;0.00;0.00;0.62;15.60;13.93;;;22.60;25.40;;;;;;2236010;62;20381;-61
2022/12/01 04:21:14;0.00;0.00;0.62;0.00;0.00;0.62;15.60;12.97;;;22.60;25.40;;;;;;2236358;62;20407;-60
2022/12/01 04:24:00;0.00;0.00;0.62;0.00;0.00;0.62;16.63;13.93;;;22.60;25.40;;;;;;2233461;62;20450;-61
2022/12/01 04:26:46;0.00;0.00;0.62;0.00;0.00;0.62;15.13;13.47;;;22.60;25.40;;;;;;2234757;62;20370;-61
2022/12/01 04:29:32;0.00;0.00;0.62;0.00;0.00;0.62;17.10;14.40;;;22.50;25.30;;;;;;2236503;62;20628;-61
2022/12/01 04:32:17;0.00;0.00;0.62;0.00;0.00;0.62;14.87;12.90;;;22.50;25.30;;;;;;2236286;62;20608;-61
2022/12/01 04:35:02;0.00;0.00;0.62;0.00;0.00;0.62;14.53;13.00;;;22.50;25.30;;;;;;2235968;62;20415;-60
2022/12/01 04:37:47;0.00;0.00;0.62;0.00;0.00;0.62;18.13;15.33;;;22.50;25.40;;;;;;2236679;62;20394;-61
2022/12/01 04:40:32;0.00;0.00;0.62;0.00;0.00;0.62;15.93;14.00;;;22.50;25.30;;;;;;2235852;62;20373;-61
2022/12/01 04:43:17;0.00;0.00;0.62;0.00;0.00;0.62;18.20;14.50;;;22.50;25.30;;;;;;2236100;62;20387;-62
2022/12/01 04:46:04;0.00;0.00;0.62;0.00;0.00;0.62;17.20;14.07;;;22.40;25.20;;;;;;2236607;62;20426;-60
2022/12/01 04:48:50;0.00;0.00;0.62;0.00;0.00;0.62;16.80;13.83;;;22.40;25.20;;;;;;2235221;62;20379;-64
2022/12/01 04:51:35;0.00;0.00;0.62;0.00;0.00;0.62;17.03;14.37;;;22.40;25.20;;;;;;2236360;62;20385;-60
2022/12/01 04:54:21;0.00;0.00;0.62;0.00;0.00;0.62;18.57;15.90;;;22.40;25.20;;;;;;2233455;62;20478;-61
2022/12/01 04:57:06;0.00;0.00;0.62;0.00;0.00;0.62;18.90;15.87;;;22.40;25.20;;;;;;2232468;62;20815;-60
2022/12/01 04:59:51;0.00;0.00;0.62;0.00;0.00;0.62;16.67;14.73;;;22.40;25.20;;;;;;2236610;62;20466;-61
2022/12/01 05:02:37;0.00;0.00;0.62;0.00;0.00;0.62;19.33;16.00;;;22.40;25.20;;;;;;2235640;62;20446;-61
2022/12/01 05:05:22;0.00;0.00;0.62;0.00;0.00;0.62;17.67;15.77;;;22.40;25.80;;;;;;2235745;62;20374;-61
2022/12/01 05:08:06;0.00;0.00;0.62;0.00;0.00;0.62;20.10;16.10;;;22.40;25.20;;;;;;2236064;62;20362;-61
2022/12/01 05:10:54;0.00;0.00;0.62;0.00;0.00;0.62;18.70;15.33;;;22.30;25.10;;;;;;2231909;62;20973;-61
2022/12/01 05:13:42;0.00;0.00;0.62;0.00;0.00;0.62;17.77;15.50;;;22.30;25.20;;;;;;2236122;62;20386;-60
2022/12/01 05:16:30;0.00;0.00;0.62;0.00;0.00;0.62;17.63;14.53;;;22.30;25.20;;;;;;2236484;62;20319;-61
2022/12/01 05:22:21;0.00;0.00;0.62;0.00;0.00;0.62;17.43;14.70;;;22.30;25.10;;;;;;2236319;62;20433;-60
2022/12/01 05:25:06;0.00;0.00;0.62;0.00;0.00;0.62;15.93;14.17;;;22.30;25.20;;;;;;2235386;62;20847;-60
2022/12/01 05:27:51;0.00;0.00;0.62;0.00;0.00;0.62;15.23;13.50;;;22.30;25.20;;;;;;2236369;62;20796;-60
2022/12/01 05:30:35;0.00;0.00;0.62;0.00;0.00;0.62;17.83;15.27;;;22.30;25.10;;;;;;2236333;62;20424;-61
2022/12/01 05:33:21;0.00;0.00;0.62;0.00;0.00;0.62;17.50;14.60;;;22.30;25.10;;;;;;2231855;62;20820;-61
2022/12/01 05:36:09;0.00;0.00;0.62;0.00;0.00;0.62;17.07;14.73;;;22.30;25.20;;;;;;2236391;62;20367;-61
2022/12/01 05:38:54;0.00;0.00;0.62;0.00;0.00;0.62;16.73;14.50;;;22.20;25.10;;;;;;2235885;62;20429;-61
2022/12/01 05:41:39;0.00;0.00;0.62;0.00;0.00;0.62;17.70;14.70;;;22.20;25.10;;;;;;2235667;62;20930;-61
2022/12/01 05:44:23;0.00;0.00;0.62;0.00;0.00;0.62;18.90;15.40;;;22.20;25.10;;;;;;2236315;62;20414;-60
2022/12/01 05:47:08;0.00;0.00;0.62;0.00;0.00;0.62;18.10;14.60;;;22.20;25.10;;;;;;2235469;62;20394;-60
2022/12/01 05:49:53;0.00;0.00;0.62;0.00;0.00;0.62;17.37;15.17;;;22.20;25.10;;;;;;2236053;62;20390;-61
2022/12/01 05:52:39;0.00;0.00;0.62;0.00;0.00;0.62;16.40;14.40;;;22.20;25.10;;;;;;2235887;62;20394;-61
2022/12/01 05:55:24;0.00;0.00;0.62;0.00;0.00;0.62;15.33;13.40;;;22.10;25.00;;;;;;2234959;62;20918;-61
2022/12/01 05:58:10;0.00;0.00;0.62;0.00;0.00;0.62;18.80;15.10;;;22.10;25.00;;;;;;2236268;62;20946;-61
2022/12/01 06:00:55;0.00;0.00;0.62;0.00;0.00;0.62;19.07;15.77;;;22.10;25.10;;;;;;2236073;62;20394;-61
2022/12/01 06:03:40;0.00;0.00;0.62;0.00;0.00;0.62;18.13;15.07;;;22.10;25.00;;;;;;2235595;62;20470;-61
2022/12/01 06:06:26;0.00;0.00;0.62;0.00;0.00;0.62;19.37;15.57;;;22.10;25.00;;;;;;2232964;62;20366;-60
2022/12/01 06:09:27;0.00;0.00;0.62;0.00;0.00;0.62;18.03;14.73;;;22.10;25.10;;;;;;2236012;62;20772;-57
2022/12/01 06:12:13;0.00;0.00;0.62;0.00;0.00;0.62;16.90;14.17;;;22.10;25.10;;;;;;2236294;62;20881;-57
2022/12/01 06:14:59;0.00;0.00;0.62;0.00;0.00;0.62;19.60;15.67;;;22.10;25.10;;;;;;2236311;62;20422;-59
2022/12/01 06:17:44;0.00;0.00;0.62;0.00;0.00;0.62;17.33;14.20;;;22.10;25.10;;;;;;2235085;62;20386;-59
2022/12/01 06:20:29;0.00;0.00;0.62;0.00;0.00;0.62;19.10;14.80;;;22.10;25.10;;;;;;2232911;62;20398;-55
2022/12/01 06:23:15;0.00;0.00;0.62;0.00;0.00;0.62;17.17;14.80;;;22.10;25.20;;;;;;2233038;62;20386;-60
2022/12/01 06:26:02;0.00;0.00;0.62;0.00;0.00;0.62;17.10;13.63;;;22.00;25.10;;;;;;2235803;62;20370;-59
2022/12/01 06:28:47;0.00;0.00;0.62;0.00;0.00;0.62;16.50;14.30;;;22.10;25.20;;;;;;2236157;62;20370;-59
2022/12/01 06:31:31;0.00;0.00;0.62;0.00;0.00;0.62;20.20;15.37;;;22.00;25.20;;;;;;2235582;62;20896;-58
2022/12/01 06:34:17;0.00;0.00;0.62;0.00;0.00;0.62;17.73;15.00;;;22.00;25.20;;;;;;2235857;62;20934;-59
2022/12/01 06:37:02;0.00;0.00;0.62;0.00;0.00;0.62;18.70;15.23;;;22.00;25.20;;;;;;2230225;62;20410;-57
2022/12/01 06:39:47;0.00;0.00;0.62;0.00;0.00;0.62;19.10;14.70;;;22.00;25.20;;;;;;2235315;62;20410;-56
2022/12/01 06:42:34;0.00;0.00;0.62;0.00;0.00;0.62;17.47;13.83;;;22.00;25.20;;;;;;2235943;61;20441;-57
2022/12/01 06:45:19;0.00;0.00;0.62;0.00;0.00;0.62;17.77;14.60;;;22.00;25.20;;;;;;2232952;62;20422;-56
2022/12/01 06:48:04;0.00;0.00;0.62;0.00;0.00;0.62;15.73;13.53;;;22.00;25.20;;;;;;2235515;62;20458;-59
2022/12/01 06:50:49;0.00;0.00;0.62;0.00;0.00;0.62;15.47;13.80;;;22.00;25.20;;;;;;2236126;62;20362;-61
2022/12/01 06:53:34;0.00;0.00;0.62;0.00;0.00;0.62;17.27;14.30;;;22.00;25.20;;;;;;2235375;62;20446;-60
2022/12/01 06:56:19;0.00;0.00;0.62;0.00;0.00;0.62;16.10;13.80;;;22.00;25.20;;;;;;2235640;62;20462;-61
2022/12/01 06:59:06;0.00;0.00;0.62;0.00;0.00;0.62;18.40;15.20;;;22.00;25.20;;;;;;2236303;62;20871;-59
2022/12/01 07:01:50;0.00;0.00;0.62;0.00;0.00;0.62;17.93;14.27;;;22.00;25.10;;;;;;2234929;61;20437;-58
2022/12/01 07:04:37;0.00;0.00;0.62;0.00;0.00;0.62;17.43;13.40;;;22.00;25.10;;;;;;2232851;62;20967;-62
2022/12/01 07:07:22;0.00;0.00;0.62;0.00;0.00;0.62;18.67;13.90;;;22.00;25.10;;;;;;2233140;62;20406;-59
2022/12/01 07:10:09;0.00;0.00;0.62;0.00;0.00;0.62;16.27;12.50;;;22.00;25.10;;;;;;2234919;62;20362;-53
2022/12/01 07:12:55;0.00;0.00;0.62;0.00;0.00;0.62;17.20;13.23;;;22.00;25.10;;;;;;2233415;62;20398;-60
2022/12/01 07:15:42;0.00;0.00;0.62;0.00;0.00;0.62;15.47;13.23;;;22.00;25.20;;;;;;2235769;62;20832;-62
2022/12/01 07:18:26;0.00;0.00;0.62;0.00;0.00;0.62;14.87;11.97;;;22.00;25.20;;;;;;2235919;62;20374;-60
2022/12/01 07:21:13;0.00;0.00;0.62;0.00;0.00;0.62;14.90;11.87;;;22.00;25.20;;;;;;2236003;62;20393;-61
2022/12/01 07:23:58;0.00;0.00;0.62;0.00;0.00;0.62;15.43;13.17;;;22.00;25.20;;;;;;2235140;62;20833;-57
2022/12/01 07:26:43;0.00;0.00;0.62;0.00;0.00;0.62;15.00;11.27;;;22.00;25.20;;;;;;2232701;62;20458;-59
2022/12/01 07:29:28;0.00;0.00;0.62;0.00;0.00;0.62;15.70;12.73;;;22.00;25.20;;;;;;2236206;62;20393;-58
2022/12/01 07:32:14;0.00;0.00;0.62;0.00;0.00;0.62;14.97;12.33;;;22.00;25.20;;;;;;2235183;61;20403;-58
2022/12/01 07:34:59;0.00;0.00;0.62;0.00;0.00;0.62;15.97;11.67;;;22.00;25.20;;;;;;2233027;62;20375;-60
2022/12/01 07:37:45;0.00;0.00;0.62;0.00;0.00;0.62;16.77;11.43;;;22.00;25.20;;;;;;2235670;62;20935;-58
2022/12/01 07:40:30;0.00;0.00;0.62;0.00;0.00;0.62;14.90;12.37;;;21.90;25.10;;;;;;2235856;62;21168;-57
2022/12/01 07:43:15;0.00;0.00;0.62;0.00;0.00;0.62;15.50;12.27;;;21.90;25.10;;;;;;2236195;61;20397;-62
2022/12/01 07:46:07;0.00;0.00;0.62;0.00;0.00;0.62;15.10;12.13;;;21.90;25.10;;;;;;2234640;62;20902;-62
2022/12/01 07:48:54;0.00;0.00;0.62;0.00;0.00;0.62;16.77;12.63;;;21.90;25.10;;;;;;2235950;62;20779;-60
2022/12/01 07:51:39;0.00;0.00;0.62;0.00;0.00;0.62;13.60;11.73;;;21.90;25.00;;;;;;2235900;61;20604;-58
2022/12/01 07:54:25;0.00;0.00;0.62;0.00;0.00;0.62;15.17;12.37;;;21.90;25.00;;;;;;2235148;62;20920;-59
2022/12/01 07:57:13;0.00;0.00;0.62;0.00;0.00;0.62;15.60;11.53;;;21.90;25.00;;;;;;2236157;62;20923;-57
2022/12/01 07:59:58;0.00;0.00;0.62;0.00;0.00;0.62;16.57;12.70;;;21.90;25.00;;;;;;2235152;62;20859;-58
2022/12/01 08:02:43;0.00;0.00;0.62;0.00;0.00;0.62;14.97;11.87;;;21.90;25.00;;;;;;2235785;61;20454;-58
2022/12/01 08:05:29;0.00;0.00;0.62;0.00;0.00;0.62;16.40;11.17;;;21.90;25.00;;;;;;2235889;62;20374;-57
2022/12/01 08:08:15;0.00;0.00;0.62;0.00;0.00;0.62;14.67;11.77;;;21.90;25.10;;;;;;2234790;62;20776;-60
2022/12/01 08:11:01;0.00;0.00;0.62;0.00;0.00;0.62;14.53;10.90;;;21.90;25.10;;;;;;2235758;62;20390;-57
2022/12/01 08:13:46;0.00;0.00;0.62;0.00;0.00;0.62;17.70;12.43;;;21.90;25.10;;;;;;2235777;62;20434;-63
2022/12/01 08:16:31;0.00;0.00;0.62;0.00;0.00;0.62;13.30;10.60;;;21.80;25.00;;;;;;2235108;62;20451;-61
2022/12/01 08:19:16;0.00;0.00;0.62;0.00;0.00;0.62;15.87;11.33;;;21.80;25.00;;;;;;2236011;62;20374;-61
2022/12/01 08:22:03;0.00;0.00;0.62;0.00;0.00;0.62;14.30;10.97;;;21.80;25.00;;;;;;2235073;61;20454;-62
2022/12/01 08:24:47;0.00;0.00;0.62;0.00;0.00;0.62;13.20;10.63;;;21.80;25.50;;;;;;2235489;62;20781;-61
2022/12/01 08:27:33;0.00;0.00;0.62;0.00;0.00;0.62;15.03;11.90;;;21.80;24.90;;;;;;2235651;62;20454;-61
2022/12/01 08:30:18;0.00;0.00;0.62;0.00;0.00;0.62;18.67;12.67;;;21.80;24.90;;;;;;2235232;62;20927;-56
2022/12/01 08:33:02;0.00;0.00;0.62;0.00;0.00;0.62;14.83;11.83;;;21.80;24.80;;;;;;2235853;61;20393;-57
2022/12/01 08:35:47;0.00;0.00;0.62;0.00;0.00;0.62;15.40;11.20;;;21.80;24.80;;;;;;2232347;62;20371;-60
2022/12/01 08:38:34;0.00;0.00;0.62;0.00;0.00;0.62;17.87;12.00;;;21.80;25.00;;;;;;2234978;62;20503;-59
2022/12/01 08:41:20;0.00;0.00;0.62;0.00;0.00;0.62;18.10;12.30;;;21.80;24.90;;;;;;2235986;62;20550;-58
2022/12/01 08:44:06;0.00;0.00;0.62;0.00;0.00;0.62;12.90;10.60;;;21.80;25.00;;;;;;2231996;62;20415;-60
2022/12/01 08:46:51;0.00;0.00;0.62;0.00;0.00;0.62;14.73;11.30;;;21.80;25.00;;;;;;2232291;62;20374;-61
2022/12/01 08:49:36;0.00;0.00;0.62;0.00;0.00;0.62;16.53;12.43;;;21.80;25.00;;;;;;2236456;62;20410;-60
2022/12/01 08:52:21;0.00;0.00;0.62;0.00;0.00;0.62;15.27;11.67;;;21.80;24.90;;;;;;2235750;62;20474;-55
2022/12/01 08:55:08;0.00;0.00;0.62;0.00;0.00;0.62;14.73;11.67;;;21.80;24.90;;;;;;2236608;62;20375;-60
2022/12/01 08:57:53;0.00;0.00;0.62;0.00;0.00;0.62;13.00;10.90;;;21.80;24.90;;;;;;2236525;62;20381;-58
2022/12/01 09:00:39;0.00;0.00;0.62;0.00;0.00;0.62;13.33;11.33;;;21.80;25.00;;;;;;2235666;62;20454;-58
2022/12/01 09:03:24;0.00;0.00;0.62;0.00;0.00;0.62;13.63;10.57;;;21.80;25.10;;;;;;2236415;62;20519;-59
2022/12/01 09:06:14;0.00;0.00;0.62;0.00;0.00;0.62;13.40;10.43;;;21.80;25.10;;;;;;2232971;62;20370;-59
2022/12/01 09:08:59;0.00;0.00;0.62;0.00;0.00;0.62;12.47;9.10;;;21.80;25.20;;;;;;2248173;58;20474;-61
2022/12/01 09:11:47;0.00;0.00;0.62;0.00;0.00;0.62;16.03;11.07;;;21.80;25.20;;;;;;2236345;62;20422;-59
2022/12/01 09:14:36;0.00;0.00;0.62;0.00;0.00;0.62;12.40;11.10;;;21.80;25.30;;;;;;2236063;62;20819;-60
2022/12/01 09:17:22;0.00;0.00;0.62;0.00;0.00;0.62;12.70;10.37;;;21.80;25.30;;;;;;2236145;62;20955;-58
2022/12/01 09:20:08;0.00;0.00;0.62;0.00;0.00;0.62;12.27;10.40;;;21.80;25.40;;;;;;2236397;62;20457;-63
2022/12/01 09:22:53;0.00;0.00;0.62;0.00;0.00;0.62;10.97;8.83;;;21.80;25.40;;;;;;2235556;61;20454;-61
2022/12/01 09:25:38;0.00;0.00;0.62;0.00;0.00;0.62;11.63;9.70;;;21.90;25.50;;;;;;2236330;62;20887;-61
2022/12/01 09:28:24;0.00;0.00;0.62;0.00;0.00;0.62;11.70;8.60;;;21.80;25.40;;;;;;2235945;62;20426;-61
2022/12/01 09:31:11;0.00;0.00;0.62;0.00;0.00;0.62;10.70;8.80;;;21.80;25.50;;;;;;2235920;62;20379;-59
2022/12/01 09:33:58;0.00;0.00;0.62;0.00;0.00;0.62;10.00;8.20;;;21.80;26.00;;;;;;2236404;62;20978;-60
2022/12/01 09:36:43;0.00;0.00;0.62;0.00;0.00;0.62;9.93;8.33;;;21.90;25.60;;;;;;2236147;62;20378;-59
2022/12/01 09:39:28;0.00;0.00;0.62;0.00;0.00;0.62;10.73;9.10;;;21.90;25.60;;;;;;2233285;62;20479;-61
2022/12/01 09:42:17;0.00;0.00;0.62;0.00;0.00;0.62;10.60;8.37;;;21.90;25.70;;;;;;2236326;61;20466;-59
2022/12/01 09:45:29;0.00;0.00;0.62;0.00;0.00;0.62;10.17;8.10;;;21.90;25.70;;;;;;2235597;62;20366;-61
2022/12/01 09:48:29;0.00;0.00;0.62;0.00;0.00;0.62;10.17;7.60;;;21.90;25.80;;;;;;2234318;62;20391;-60
2022/12/01 09:51:16;0.00;0.00;0.62;0.00;0.00;0.62;9.80;8.43;;;21.90;25.80;;;;;;2239169;58;20635;-56
2022/12/01 09:54:01;0.00;0.00;0.62;0.00;0.00;0.62;9.90;7.90;;;21.90;25.70;;;;;;2236113;62;20390;-56
2022/12/01 09:56:51;0.00;0.00;0.62;0.00;0.00;0.62;8.57;6.97;;;21.90;25.70;;;;;;2235901;62;20946;-54
2022/12/01 09:59:41;0.00;0.00;0.62;0.00;0.00;0.62;11.57;8.70;;;22.00;25.80;;;;;;2235342;62;20374;-59
2022/12/01 10:02:33;0.00;0.00;0.62;0.00;0.00;0.62;10.00;8.03;;;22.00;25.90;;;;;;2236235;62;20454;-60
2022/12/01 10:05:21;0.00;0.00;0.62;0.00;0.00;0.62;10.07;7.40;;;22.00;25.90;;;;;;2235939;62;20402;-60
2022/12/01 10:08:13;0.00;0.00;0.62;0.00;0.00;0.62;8.60;7.27;;;22.00;25.90;;;;;;2235712;62;20455;-61
2022/12/01 10:11:05;0.00;0.00;0.62;0.00;0.00;0.62;11.07;8.27;;;22.00;25.90;;;;;;2236368;62;20463;-59
2022/12/01 10:13:50;0.00;0.00;0.62;0.00;0.00;0.62;9.20;7.70;;;22.00;25.90;;;;;;2235672;62;20393;-60
2022/12/01 10:16:47;0.00;0.00;0.62;0.00;0.00;0.62;8.00;6.60;;;22.00;25.90;;;;;;2236412;62;20378;-61
2022/12/01 10:19:41;0.00;0.00;0.62;0.00;0.00;0.62;7.80;6.40;;;22.00;25.90;;;;;;2236316;62;20366;-61
2022/12/01 10:23:32;0.00;0.00;0.62;0.00;0.00;0.62;7.80;6.93;;;22.00;25.90;;;;;;2235117;62;20453;-60
2022/12/01 10:26:27;0.00;0.00;0.62;0.00;0.00;0.62;8.87;7.40;;;22.10;26.00;;;;;;2219509;62;20429;-57
2022/12/01 10:29:22;0.00;0.00;0.62;0.00;0.00;0.62;7.67;6.40;;;22.10;26.00;;;;;;2218543;62;20453;-59
2022/12/01 10:32:14;0.00;0.00;0.62;0.00;0.00;0.62;10.27;6.57;;;22.10;26.00;;;;;;2235333;62;20939;-62
2022/12/01 10:35:00;0.00;0.00;0.62;0.00;0.00;0.62;9.33;6.67;;;22.10;26.00;;;;;;2235765;62;20426;-61
2022/12/01 10:37:47;0.00;0.00;0.62;0.00;0.00;0.62;7.93;5.90;;;22.10;26.00;;;;;;2235825;62;20387;-59
2022/12/01 10:40:35;0.00;0.00;0.62;0.00;0.00;0.62;7.17;5.57;;;22.10;26.00;;;;;;2236294;62;20394;-60
2022/12/01 10:43:28;0.00;0.00;0.62;0.00;0.00;0.62;6.13;5.53;;;22.10;26.00;;;;;;2235139;62;20413;-59
2022/12/01 10:46:23;0.00;0.00;0.62;0.00;0.00;0.62;7.50;6.40;;;22.20;26.10;;;;;;2236308;62;20642;-57
2022/12/01 10:49:12;0.00;0.00;0.62;0.00;0.00;0.62;7.07;6.20;;;22.20;26.10;;;;;;2235963;62;20374;-60
2022/12/01 10:51:58;0.00;0.00;0.62;0.00;0.00;0.62;7.43;5.60;;;22.20;26.10;;;;;;2235144;61;20377;-60
2022/12/01 10:54:43;0.00;0.00;0.62;0.00;0.00;0.62;6.83;5.77;;;22.20;26.10;;;;;;2233783;62;20406;-58
2022/12/01 10:57:30;0.00;0.00;0.62;0.00;0.00;0.62;6.90;5.50;;;22.20;26.10;;;;;;2235372;62;20378;-60
2022/12/01 11:00:23;0.00;0.00;0.62;0.00;0.00;0.62;7.77;6.30;;;22.20;26.10;;;;;;2235668;62;20426;-61